Time;durP1;ratioP1;P1;durP2;ratioP2;P2;SDS_P1;SDS_P2;PMS_P1;PMS_P2;Temp;Humidity;BMP_temperature;BMP_pressure;BME280_temperature;BME280_humidity;BME280_pressure;Samples;Min_cycle;Max_cycle;Signal;HPM_P1;HPM_P2
2023/12/26 00:00:25;;;;;;;5.90;1.10;;;;;;;;;;4987145;28;20286;-69
2023/12/26 00:02:51;;;;;;;3.15;1.20;;;;;;;;;;4988402;28;20207;-69
2023/12/26 00:05:16;;;;;;;3.35;0.93;;;;;;;;;;4988675;28;20222;-68
2023/12/26 00:07:41;;;;;;;2.28;0.80;;;;;;;;;;4988531;28;20190;-68
2023/12/26 00:10:07;;;;;;;0.95;0.50;;;;;;;;;;4986418;28;20791;-70
2023/12/26 00:12:32;;;;;;;3.20;0.73;;;;;;;;;;4989967;28;20274;-70
2023/12/26 00:14:57;;;;;;;3.38;0.63;;;;;;;;;;4985659;28;20711;-69
2023/12/26 00:17:22;;;;;;;2.13;0.63;;;;;;;;;;4989922;28;20254;-69
2023/12/26 00:19:49;;;;;;;1.48;0.70;;;;;;;;;;4988089;28;20176;-68
2023/12/26 00:22:15;;;;;;;1.13;0.52;;;;;;;;;;4989911;28;20203;-68
2023/12/26 00:24:40;;;;;;;1.45;0.50;;;;;;;;;;4988676;28;20176;-67
2023/12/26 00:27:05;;;;;;;2.78;0.98;;;;;;;;;;4985031;28;20188;-69
2023/12/26 00:29:30;;;;;;;4.40;1.63;;;;;;;;;;4989146;28;20203;-69
2023/12/26 00:31:55;;;;;;;3.17;1.15;;;;;;;;;;4990495;28;20239;-70
2023/12/26 00:34:21;;;;;;;3.78;1.05;;;;;;;;;;4990878;28;20176;-70
2023/12/26 00:36:46;;;;;;;4.50;1.25;;;;;;;;;;4989261;28;20667;-70
2023/12/26 00:39:11;;;;;;;3.70;1.05;;;;;;;;;;4989919;28;20584;-68
2023/12/26 00:41:37;;;;;;;4.82;1.17;;;;;;;;;;4990114;28;20200;-68
2023/12/26 00:44:02;;;;;;;5.90;1.67;;;;;;;;;;4985360;28;20253;-69
2023/12/26 00:46:28;;;;;;;3.88;1.35;;;;;;;;;;4986166;28;20238;-69
2023/12/26 00:48:53;;;;;;;2.15;1.08;;;;;;;;;;4988364;28;20187;-69
2023/12/26 00:51:18;;;;;;;5.85;1.27;;;;;;;;;;4991715;28;20214;-69
2023/12/26 00:53:43;;;;;;;7.13;1.80;;;;;;;;;;4990231;28;20655;-71
2023/12/26 00:56:09;;;;;;;4.63;2.70;;;;;;;;;;4992370;28;20702;-70
2023/12/26 00:58:35;;;;;;;4.10;1.48;;;;;;;;;;4994765;28;20221;-71
2023/12/26 01:01:00;;;;;;;3.30;1.10;;;;;;;;;;4990105;28;20568;-71
2023/12/26 01:03:25;;;;;;;3.17;0.70;;;;;;;;;;4993091;28;20204;-71
2023/12/26 01:05:51;;;;;;;2.95;1.05;;;;;;;;;;4990511;28;20706;-71
2023/12/26 01:08:17;;;;;;;2.92;0.90;;;;;;;;;;4990231;28;20238;-71
2023/12/26 01:10:43;;;;;;;4.53;1.20;;;;;;;;;;4989616;28;20199;-71
2023/12/26 01:13:08;;;;;;;9.98;1.88;;;;;;;;;;4990409;28;20732;-71
2023/12/26 01:15:33;;;;;;;2.50;1.10;;;;;;;;;;4992502;28;20175;-71
2023/12/26 01:17:58;;;;;;;5.20;1.52;;;;;;;;;;4986876;28;20268;-71
2023/12/26 01:20:24;;;;;;;6.53;1.50;;;;;;;;;;4991169;28;20215;-72
2023/12/26 01:22:49;;;;;;;3.53;1.02;;;;;;;;;;4989661;28;20646;-70
2023/12/26 01:25:14;;;;;;;7.50;2.53;;;;;;;;;;4990498;28;20172;-71
2023/12/26 01:27:39;;;;;;;5.15;1.98;;;;;;;;;;4993050;28;20184;-72
2023/12/26 01:30:06;;;;;;;4.32;1.30;;;;;;;;;;4990484;28;20250;-72
2023/12/26 01:32:32;;;;;;;7.07;1.98;;;;;;;;;;4987763;28;20198;-72
2023/12/26 01:34:58;;;;;;;7.60;1.13;;;;;;;;;;4989119;28;20172;-72
2023/12/26 01:37:23;;;;;;;4.10;1.08;;;;;;;;;;4990922;28;20713;-71
2023/12/26 01:39:48;;;;;;;4.90;1.65;;;;;;;;;;4992012;28;20175;-72
2023/12/26 01:42:13;;;;;;;9.80;1.60;;;;;;;;;;4992651;28;20213;-71
2023/12/26 01:44:39;;;;;;;5.97;1.00;;;;;;;;;;4993701;28;20263;-71
2023/12/26 01:47:04;;;;;;;4.15;1.55;;;;;;;;;;4991380;28;20187;-72
2023/12/26 01:49:29;;;;;;;5.35;1.55;;;;;;;;;;4992191;28;20211;-72
2023/12/26 01:51:55;;;;;;;6.95;1.48;;;;;;;;;;4991676;28;20274;-73
2023/12/26 01:54:23;;;;;;;9.38;2.08;;;;;;;;;;4992114;28;20182;-71
2023/12/26 01:56:49;;;;;;;6.40;1.90;;;;;;;;;;4992408;28;20186;-70
2023/12/26 01:59:15;;;;;;;6.57;1.30;;;;;;;;;;4986203;28;20183;-71
2023/12/26 02:01:40;;;;;;;2.05;1.15;;;;;;;;;;4993321;28;20217;-71
2023/12/26 02:04:05;;;;;;;13.32;2.05;;;;;;;;;;4992501;28;20654;-71
2023/12/26 02:06:31;;;;;;;8.77;2.08;;;;;;;;;;4991529;28;20176;-70
2023/12/26 02:08:56;;;;;;;9.02;1.52;;;;;;;;;;4993491;28;20258;-71
2023/12/26 02:11:21;;;;;;;6.20;2.22;;;;;;;;;;4991562;28;20710;-71
2023/12/26 02:13:47;;;;;;;5.85;2.05;;;;;;;;;;4992321;28;20179;-71
2023/12/26 02:16:15;;;;;;;6.95;2.13;;;;;;;;;;4990025;28;20647;-71
2023/12/26 02:18:41;;;;;;;6.47;1.45;;;;;;;;;;4991064;28;20180;-71
2023/12/26 02:21:06;;;;;;;7.93;1.85;;;;;;;;;;4990951;28;20258;-71
2023/12/26 02:23:33;;;;;;;5.43;1.23;;;;;;;;;;4992689;28;20215;-70
2023/12/26 02:26:00;;;;;;;8.57;2.17;;;;;;;;;;4992137;28;20183;-70
2023/12/26 02:28:26;;;;;;;8.73;1.80;;;;;;;;;;4991740;28;20270;-71
2023/12/26 02:30:51;;;;;;;9.48;1.50;;;;;;;;;;4989458;28;20296;-71
2023/12/26 02:33:17;;;;;;;12.15;1.80;;;;;;;;;;4992188;28;20203;-71
2023/12/26 02:35:43;;;;;;;8.68;1.77;;;;;;;;;;4988988;28;20172;-70
2023/12/26 02:38:08;;;;;;;3.38;1.10;;;;;;;;;;4991649;28;20285;-72
2023/12/26 02:40:33;;;;;;;6.07;1.58;;;;;;;;;;4991038;28;20183;-71
2023/12/26 02:42:58;;;;;;;12.07;2.15;;;;;;;;;;4990719;28;20207;-70
2023/12/26 02:45:24;;;;;;;5.68;1.45;;;;;;;;;;4986593;28;20230;-70
2023/12/26 02:47:49;;;;;;;5.40;1.50;;;;;;;;;;4988724;28;20194;-69
2023/12/26 02:50:14;;;;;;;10.07;1.63;;;;;;;;;;4989347;28;20680;-70
2023/12/26 02:52:41;;;;;;;2.38;1.02;;;;;;;;;;4987746;28;20210;-71
2023/12/26 02:55:06;;;;;;;3.92;1.23;;;;;;;;;;4989521;28;21842;-70
2023/12/26 02:57:32;;;;;;;5.35;1.17;;;;;;;;;;4991455;28;20263;-71
2023/12/26 02:59:57;;;;;;;3.25;1.05;;;;;;;;;;4986727;28;20188;-70
2023/12/26 03:02:22;;;;;;;1.90;0.93;;;;;;;;;;4990957;28;20231;-70
2023/12/26 03:04:47;;;;;;;5.22;2.13;;;;;;;;;;4987155;28;20184;-71
2023/12/26 03:07:12;;;;;;;3.20;1.23;;;;;;;;;;4988093;28;20266;-71
2023/12/26 03:09:38;;;;;;;4.95;1.27;;;;;;;;;;4990593;28;20223;-71
2023/12/26 03:12:03;;;;;;;11.02;2.55;;;;;;;;;;4991086;28;20203;-69
2023/12/26 03:14:28;;;;;;;7.78;1.30;;;;;;;;;;4990695;28;20643;-70
2023/12/26 03:16:53;;;;;;;4.25;1.00;;;;;;;;;;4986722;28;20675;-69
2023/12/26 03:19:19;;;;;;;5.05;1.10;;;;;;;;;;4990942;28;20180;-70
2023/12/26 03:21:44;;;;;;;8.30;1.88;;;;;;;;;;4991463;28;20202;-70
2023/12/26 03:24:09;;;;;;;7.70;1.70;;;;;;;;;;4991927;28;20203;-71
2023/12/26 03:26:35;;;;;;;5.75;1.48;;;;;;;;;;4987138;28;20537;-71
2023/12/26 03:29:00;;;;;;;5.07;1.20;;;;;;;;;;4991697;28;20184;-71
2023/12/26 03:31:25;;;;;;;2.50;1.17;;;;;;;;;;4987449;28;20537;-70
2023/12/26 03:33:50;;;;;;;3.13;0.77;;;;;;;;;;4991286;28;20207;-71
2023/12/26 03:36:16;;;;;;;9.20;1.20;;;;;;;;;;4990749;28;20196;-72
2023/12/26 03:38:43;;;;;;;3.30;1.00;;;;;;;;;;4991439;28;20176;-71
2023/12/26 03:41:08;;;;;;;4.50;1.20;;;;;;;;;;4989183;28;20183;-69
2023/12/26 03:43:34;;;;;;;5.20;1.20;;;;;;;;;;4987636;28;20702;-70
2023/12/26 03:45:59;;;;;;;13.03;2.60;;;;;;;;;;4988409;28;20442;-73
2023/12/26 03:48:24;;;;;;;6.03;1.17;;;;;;;;;;4987581;28;20670;-70
2023/12/26 03:50:49;;;;;;;2.00;0.70;;;;;;;;;;4990550;28;20250;-71
2023/12/26 03:53:15;;;;;;;7.80;1.70;;;;;;;;;;4988316;28;20215;-71
2023/12/26 03:55:41;;;;;;;6.13;1.50;;;;;;;;;;4988306;28;20180;-71
2023/12/26 03:58:06;;;;;;;2.90;1.40;;;;;;;;;;4989201;28;20185;-70
2023/12/26 04:00:31;;;;;;;9.07;1.50;;;;;;;;;;4989446;28;20627;-71
2023/12/26 04:02:56;;;;;;;9.50;2.67;;;;;;;;;;4991207;28;20200;-71
2023/12/26 04:05:22;;;;;;;5.27;1.77;;;;;;;;;;4988919;28;20206;-71
2023/12/26 04:07:48;;;;;;;4.37;1.47;;;;;;;;;;4991512;28;20190;-70
2023/12/26 04:10:13;;;;;;;4.17;1.40;;;;;;;;;;4989312;28;20261;-70
2023/12/26 04:12:38;;;;;;;4.60;1.30;;;;;;;;;;4989678;28;20203;-70
2023/12/26 04:15:04;;;;;;;6.70;1.40;;;;;;;;;;4989772;28;20182;-72
2023/12/26 04:17:29;;;;;;;2.90;0.90;;;;;;;;;;4990663;28;20330;-70
2023/12/26 04:19:54;;;;;;;6.73;1.40;;;;;;;;;;4990618;28;20176;-70
2023/12/26 04:22:19;;;;;;;5.03;1.00;;;;;;;;;;4991787;28;20234;-71
2023/12/26 04:24:45;;;;;;;10.33;1.60;;;;;;;;;;4994413;28;20171;-71
2023/12/26 04:27:10;;;;;;;3.67;1.23;;;;;;;;;;4993248;28;20559;-70
2023/12/26 04:29:35;;;;;;;6.03;1.40;;;;;;;;;;4990330;28;20251;-69
2023/12/26 04:32:00;;;;;;;6.00;1.80;;;;;;;;;;4994256;28;20346;-70
2023/12/26 04:34:26;;;;;;;6.43;1.30;;;;;;;;;;4991532;28;20180;-71
2023/12/26 04:36:51;;;;;;;10.73;2.67;;;;;;;;;;4994579;28;20179;-72
2023/12/26 04:39:17;;;;;;;9.17;3.00;;;;;;;;;;4993380;28;20180;-71
2023/12/26 04:41:42;;;;;;;3.60;1.30;;;;;;;;;;4993703;28;20217;-71
2023/12/26 04:44:07;;;;;;;4.50;1.57;;;;;;;;;;4989683;28;20215;-69
2023/12/26 04:46:32;;;;;;;8.03;2.10;;;;;;;;;;4988625;28;20644;-71
2023/12/26 04:48:58;;;;;;;6.40;1.70;;;;;;;;;;4991689;28;20176;-72
2023/12/26 04:51:23;;;;;;;12.57;2.17;;;;;;;;;;4993620;28;20238;-69
2023/12/26 04:53:49;;;;;;;8.77;1.67;;;;;;;;;;4990006;28;20226;-69
2023/12/26 04:56:18;;;;;;;6.90;1.77;;;;;;;;;;4991994;28;20681;-69
2023/12/26 04:58:45;;;;;;;7.07;1.57;;;;;;;;;;4991027;28;20226;-69
2023/12/26 05:01:11;;;;;;;4.93;0.80;;;;;;;;;;4992012;28;20187;-72
2023/12/26 05:03:36;;;;;;;8.97;1.30;;;;;;;;;;4992824;28;20772;-71
2023/12/26 05:06:01;;;;;;;5.43;1.00;;;;;;;;;;4992719;28;20215;-71
2023/12/26 05:08:26;;;;;;;3.87;1.57;;;;;;;;;;4993225;28;20178;-69
2023/12/26 05:10:52;;;;;;;6.17;1.27;;;;;;;;;;4993233;28;20269;-71
2023/12/26 05:13:17;;;;;;;6.17;1.27;;;;;;;;;;4993399;28;20254;-71
2023/12/26 05:15:42;;;;;;;5.83;1.00;;;;;;;;;;4992970;28;20195;-70
2023/12/26 05:18:07;;;;;;;13.40;2.20;;;;;;;;;;4989815;28;20685;-70
2023/12/26 05:20:33;;;;;;;7.83;1.13;;;;;;;;;;4993579;28;20199;-69
2023/12/26 05:22:58;;;;;;;5.87;1.30;;;;;;;;;;4989920;28;20196;-70
2023/12/26 05:25:24;;;;;;;4.87;1.37;;;;;;;;;;4990935;28;20183;-72
2023/12/26 05:27:49;;;;;;;6.33;1.20;;;;;;;;;;4989566;28;20195;-71
2023/12/26 05:30:15;;;;;;;4.97;0.87;;;;;;;;;;4992190;28;20265;-70
2023/12/26 05:32:40;;;;;;;5.27;1.00;;;;;;;;;;4990511;28;20226;-70
2023/12/26 05:35:06;;;;;;;3.83;1.30;;;;;;;;;;4992930;28;20695;-70
2023/12/26 05:37:31;;;;;;;12.73;1.87;;;;;;;;;;4990513;28;20195;-70
2023/12/26 05:39:56;;;;;;;5.47;1.50;;;;;;;;;;4992166;28;20184;-70
2023/12/26 05:42:23;;;;;;;11.67;1.37;;;;;;;;;;4992209;28;20206;-71
2023/12/26 05:44:48;;;;;;;8.40;1.77;;;;;;;;;;4991266;28;20195;-71
2023/12/26 05:47:14;;;;;;;4.80;1.37;;;;;;;;;;4990993;28;20395;-71
2023/12/26 05:49:39;;;;;;;5.80;0.90;;;;;;;;;;4992710;28;20298;-72
2023/12/26 05:52:05;;;;;;;6.80;1.67;;;;;;;;;;4990334;28;20222;-71
2023/12/26 05:54:30;;;;;;;3.33;1.13;;;;;;;;;;4989329;28;20190;-70
2023/12/26 05:56:55;;;;;;;7.73;1.43;;;;;;;;;;4992938;28;20175;-71
2023/12/26 05:59:20;;;;;;;6.03;1.33;;;;;;;;;;4990550;28;20640;-71
2023/12/26 06:01:46;;;;;;;7.97;1.07;;;;;;;;;;4990550;28;20560;-70
2023/12/26 06:04:12;;;;;;;3.67;1.20;;;;;;;;;;4993366;28;20171;-69
2023/12/26 06:06:37;;;;;;;5.23;1.20;;;;;;;;;;4991208;28;20184;-71
2023/12/26 06:09:02;;;;;;;5.67;1.47;;;;;;;;;;4993317;28;20175;-70
2023/12/26 06:11:27;;;;;;;6.17;1.17;;;;;;;;;;4991169;28;20216;-70
2023/12/26 06:13:53;;;;;;;7.80;1.30;;;;;;;;;;4990028;28;20214;-70
2023/12/26 06:16:18;;;;;;;4.03;1.20;;;;;;;;;;4992077;28;20184;-69
2023/12/26 06:18:43;;;;;;;7.93;1.77;;;;;;;;;;4993159;28;20583;-70
2023/12/26 06:21:08;;;;;;;4.87;0.80;;;;;;;;;;4991599;28;20175;-71
2023/12/26 06:23:34;;;;;;;4.80;1.23;;;;;;;;;;4992768;28;20207;-70
2023/12/26 06:25:59;;;;;;;10.10;1.67;;;;;;;;;;4989807;28;20205;-70
2023/12/26 06:28:24;;;;;;;5.80;1.40;;;;;;;;;;4991827;28;20268;-69
2023/12/26 06:30:49;;;;;;;7.43;1.33;;;;;;;;;;4985672;28;20211;-69
2023/12/26 06:33:15;;;;;;;7.20;1.80;;;;;;;;;;4990151;28;20590;-71
2023/12/26 06:35:40;;;;;;;5.40;1.73;;;;;;;;;;4990319;28;20238;-70
2023/12/26 06:38:12;;;;;;;7.43;1.47;;;;;;;;;;4992181;28;20179;-72
2023/12/26 06:40:37;;;;;;;8.03;1.13;;;;;;;;;;4990989;28;20222;-70
2023/12/26 06:43:03;;;;;;;8.53;1.63;;;;;;;;;;4991369;28;20227;-71
2023/12/26 06:45:28;;;;;;;8.77;1.70;;;;;;;;;;4988725;28;20605;-71
2023/12/26 06:47:53;;;;;;;10.27;1.43;;;;;;;;;;4991051;28;20562;-69
2023/12/26 06:50:19;;;;;;;6.03;1.50;;;;;;;;;;4989494;28;20207;-70
2023/12/26 06:52:44;;;;;;;6.53;1.10;;;;;;;;;;5002183;23;20227;-71
2023/12/26 06:55:09;;;;;;;9.30;2.03;;;;;;;;;;4989950;28;20191;-70
2023/12/26 06:57:34;;;;;;;3.83;1.53;;;;;;;;;;4992233;28;20662;-71
2023/12/26 07:00:00;;;;;;;6.50;2.40;;;;;;;;;;4990382;28;20175;-70
2023/12/26 07:02:25;;;;;;;5.80;1.20;;;;;;;;;;4991244;28;20667;-71
2023/12/26 07:04:51;;;;;;;4.20;1.13;;;;;;;;;;4992146;28;20183;-70
2023/12/26 07:07:17;;;;;;;10.50;1.83;;;;;;;;;;4991989;28;20184;-71
2023/12/26 07:09:42;;;;;;;7.23;1.40;;;;;;;;;;4991722;28;20693;-70
2023/12/26 07:12:07;;;;;;;7.87;1.33;;;;;;;;;;4990284;28;20200;-70
2023/12/26 07:14:32;;;;;;;8.27;1.57;;;;;;;;;;4989460;28;20262;-70
2023/12/26 07:16:58;;;;;;;6.17;2.33;;;;;;;;;;4991501;28;20167;-70
2023/12/26 07:19:23;;;;;;;9.03;1.47;;;;;;;;;;4992153;28;20257;-70
2023/12/26 07:21:48;;;;;;;9.57;2.10;;;;;;;;;;4991747;28;20581;-70
2023/12/26 07:24:14;;;;;;;4.50;1.37;;;;;;;;;;4991100;28;20180;-70
2023/12/26 07:26:39;;;;;;;2.77;1.20;;;;;;;;;;5004820;28;20171;-70
2023/12/26 07:29:04;;;;;;;10.00;1.53;;;;;;;;;;4991852;28;20180;-70
2023/12/26 07:31:30;;;;;;;4.23;1.37;;;;;;;;;;4990592;28;20294;-70
2023/12/26 07:33:56;;;;;;;8.50;1.73;;;;;;;;;;4990125;28;20206;-70
2023/12/26 07:36:21;;;;;;;5.13;1.63;;;;;;;;;;4989256;28;20179;-70
2023/12/26 07:38:46;;;;;;;4.33;1.57;;;;;;;;;;4990220;28;20219;-70
2023/12/26 07:41:12;;;;;;;5.40;1.57;;;;;;;;;;4989898;28;20180;-70
2023/12/26 07:43:37;;;;;;;7.03;1.53;;;;;;;;;;4990207;28;20312;-70
2023/12/26 07:46:04;;;;;;;6.03;1.40;;;;;;;;;;4986571;28;20237;-70
2023/12/26 07:48:29;;;;;;;4.57;1.30;;;;;;;;;;4986471;28;20209;-70
2023/12/26 07:50:54;;;;;;;4.53;1.23;;;;;;;;;;4984117;28;20695;-71
2023/12/26 07:53:20;;;;;;;9.10;2.13;;;;;;;;;;4988571;28;20211;-70
2023/12/26 07:55:45;;;;;;;4.77;1.77;;;;;;;;;;5003668;28;20226;-70
2023/12/26 07:58:10;;;;;;;6.43;0.97;;;;;;;;;;4988797;28;20717;-70
2023/12/26 08:00:35;;;;;;;6.47;1.10;;;;;;;;;;4989443;28;20188;-70
2023/12/26 08:03:01;;;;;;;4.87;0.97;;;;;;;;;;4990190;28;20195;-70
2023/12/26 08:05:26;;;;;;;7.83;1.50;;;;;;;;;;4990612;28;20318;-70
2023/12/26 08:07:51;;;;;;;7.17;0.83;;;;;;;;;;4990572;28;20514;-70
2023/12/26 08:10:17;;;;;;;8.77;1.50;;;;;;;;;;4990462;28;20199;-70
2023/12/26 08:12:42;;;;;;;5.70;1.60;;;;;;;;;;4989805;28;20218;-70
2023/12/26 08:15:09;;;;;;;6.70;1.67;;;;;;;;;;4990509;28;20194;-70
2023/12/26 08:17:34;;;;;;;13.60;1.63;;;;;;;;;;4990513;28;20175;-70
2023/12/26 08:19:59;;;;;;;4.73;1.23;;;;;;;;;;4990984;28;20636;-70
2023/12/26 08:22:25;;;;;;;5.43;1.63;;;;;;;;;;4990370;28;20589;-70
2023/12/26 08:24:50;;;;;;;7.97;1.67;;;;;;;;;;4990546;28;20710;-69
2023/12/26 08:27:15;;;;;;;6.80;1.50;;;;;;;;;;4988973;28;20619;-70
2023/12/26 08:29:40;;;;;;;16.43;2.00;;;;;;;;;;4989045;28;20298;-70
2023/12/26 08:32:06;;;;;;;6.40;1.57;;;;;;;;;;4989460;28;20656;-70
2023/12/26 08:34:31;;;;;;;10.00;1.83;;;;;;;;;;4990688;28;20234;-70
2023/12/26 08:36:56;;;;;;;5.30;1.73;;;;;;;;;;4988977;28;20202;-70
2023/12/26 08:39:22;;;;;;;4.93;1.00;;;;;;;;;;4986574;28;20175;-70
2023/12/26 08:41:47;;;;;;;12.47;1.93;;;;;;;;;;4987590;28;20242;-70
2023/12/26 08:44:13;;;;;;;3.20;1.13;;;;;;;;;;4987026;28;20179;-70
2023/12/26 08:46:39;;;;;;;5.13;1.13;;;;;;;;;;4990027;28;20644;-70
2023/12/26 08:49:04;;;;;;;7.43;1.40;;;;;;;;;;4990114;28;20184;-70
2023/12/26 08:51:29;;;;;;;7.00;1.93;;;;;;;;;;4989867;28;20206;-70
2023/12/26 08:53:55;;;;;;;3.67;0.90;;;;;;;;;;4989356;28;20219;-69
2023/12/26 08:56:21;;;;;;;6.17;1.53;;;;;;;;;;4989397;28;20695;-69
2023/12/26 08:58:47;;;;;;;12.70;2.00;;;;;;;;;;4989299;28;20184;-70
2023/12/26 09:01:12;;;;;;;12.07;1.63;;;;;;;;;;4989723;28;20196;-70
2023/12/26 09:03:38;;;;;;;9.57;2.07;;;;;;;;;;4990386;28;20195;-72
2023/12/26 09:06:03;;;;;;;16.47;2.63;;;;;;;;;;4986882;28;20563;-69
2023/12/26 09:08:29;;;;;;;8.30;2.10;;;;;;;;;;4992244;28;20176;-70
2023/12/26 09:10:54;;;;;;;7.03;1.30;;;;;;;;;;4993178;28;20215;-69
2023/12/26 09:13:21;;;;;;;8.57;1.70;;;;;;;;;;4993802;28;20191;-70
2023/12/26 09:15:46;;;;;;;10.20;2.20;;;;;;;;;;4990803;28;20182;-71
2023/12/26 09:18:12;;;;;;;8.80;2.23;;;;;;;;;;4993670;28;20180;-70
2023/12/26 09:20:37;;;;;;;8.17;1.70;;;;;;;;;;4993403;28;20679;-70
2023/12/26 09:23:02;;;;;;;8.87;2.10;;;;;;;;;;4993747;28;20664;-69
2023/12/26 09:25:28;;;;;;;11.10;2.47;;;;;;;;;;4992761;28;20564;-71
2023/12/26 09:27:53;;;;;;;8.57;3.03;;;;;;;;;;4993886;28;20190;-70
2023/12/26 09:30:18;;;;;;;8.03;1.53;;;;;;;;;;4992328;28;20655;-71
2023/12/26 09:32:43;;;;;;;8.77;2.73;;;;;;;;;;4992790;28;20218;-71
2023/12/26 09:35:09;;;;;;;5.10;1.30;;;;;;;;;;4992659;28;20564;-71
2023/12/26 09:37:38;;;;;;;12.70;2.50;;;;;;;;;;4992166;28;20199;-71
2023/12/26 09:40:04;;;;;;;5.63;1.90;;;;;;;;;;4991512;28;20179;-71
2023/12/26 09:42:29;;;;;;;8.95;2.55;;;;;;;;;;4991745;28;20215;-71
2023/12/26 09:44:55;;;;;;;10.30;1.80;;;;;;;;;;4992609;28;20632;-71
2023/12/26 09:47:21;;;;;;;7.68;1.25;;;;;;;;;;4992615;28;20706;-69
2023/12/26 09:49:47;;;;;;;8.68;1.85;;;;;;;;;;4993400;28;20671;-69
2023/12/26 09:52:13;;;;;;;5.65;1.45;;;;;;;;;;4992653;28;20207;-69
2023/12/26 09:54:39;;;;;;;7.03;1.58;;;;;;;;;;4993682;28;20179;-70
2023/12/26 09:57:07;;;;;;;5.47;1.45;;;;;;;;;;4992163;28;20234;-69
2023/12/26 09:59:35;;;;;;;5.50;1.52;;;;;;;;;;4992860;28;20601;-70
2023/12/26 10:02:01;;;;;;;13.88;2.08;;;;;;;;;;4992062;28;20552;-70
2023/12/26 10:04:26;;;;;;;5.93;1.67;;;;;;;;;;4986836;28;20182;-70
2023/12/26 10:06:52;;;;;;;8.30;1.33;;;;;;;;;;4990610;28;20186;-70
2023/12/26 10:09:18;;;;;;;10.57;2.97;;;;;;;;;;4993579;28;20662;-72
2023/12/26 10:11:44;;;;;;;4.90;1.53;;;;;;;;;;4991621;28;20239;-71
2023/12/26 10:14:09;;;;;;;8.47;2.03;;;;;;;;;;4992494;28;20812;-70
2023/12/26 10:16:34;;;;;;;10.60;1.97;;;;;;;;;;4992719;28;20287;-70
2023/12/26 10:18:59;;;;;;;9.73;2.13;;;;;;;;;;4993561;28;20186;-70
2023/12/26 10:21:25;;;;;;;9.83;3.03;;;;;;;;;;4991960;28;20291;-70
2023/12/26 10:23:50;;;;;;;13.37;2.33;;;;;;;;;;4993116;28;20210;-70
2023/12/26 10:26:15;;;;;;;9.48;2.08;;;;;;;;;;4991944;28;20176;-71
2023/12/26 10:28:44;;;;;;;14.13;2.80;;;;;;;;;;4991219;28;20665;-70
2023/12/26 10:31:10;;;;;;;8.02;2.35;;;;;;;;;;4991169;28;20205;-69
2023/12/26 10:33:35;;;;;;;5.22;1.30;;;;;;;;;;4993210;28;20227;-69
2023/12/26 10:36:03;;;;;;;13.07;2.05;;;;;;;;;;4992031;28;20207;-69
2023/12/26 10:38:28;;;;;;;7.30;2.33;;;;;;;;;;4991555;28;20710;-69
2023/12/26 10:40:56;;;;;;;13.57;2.80;;;;;;;;;;4991870;28;20184;-70
2023/12/26 10:43:21;;;;;;;13.00;1.85;;;;;;;;;;4986704;28;20199;-69
2023/12/26 10:45:48;;;;;;;10.05;2.60;;;;;;;;;;4991666;28;20179;-69
2023/12/26 10:48:15;;;;;;;7.18;1.90;;;;;;;;;;4992560;28;20211;-70
2023/12/26 10:50:40;;;;;;;12.38;2.17;;;;;;;;;;4992030;28;20191;-69
2023/12/26 10:53:16;;;;;;;6.93;1.60;;;;;;;;;;4991936;28;20219;-69
2023/12/26 10:55:43;;;;;;;7.03;1.75;;;;;;;;;;4991290;28;20310;-69
2023/12/26 10:58:28;;;;;;;7.97;1.73;;;;;;;;;;4990223;28;20180;-70
2023/12/26 13:51:42;;;;;;;7.97;1.20;;;;;;;;;;4970615;28;20277;-72
2023/12/26 13:54:08;;;;;;;8.00;1.00;;;;;;;;;;4970577;28;20211;-71
2023/12/26 13:56:33;;;;;;;4.73;1.93;;;;;;;;;;4972311;28;21124;-70
2023/12/26 13:58:58;;;;;;;2.43;0.97;;;;;;;;;;4969091;28;20183;-71
2023/12/26 14:01:23;;;;;;;7.43;1.20;;;;;;;;;;4973019;28;20188;-71
2023/12/26 14:03:49;;;;;;;2.97;1.53;;;;;;;;;;4970977;28;20207;-70
2023/12/26 14:06:16;;;;;;;6.20;1.60;;;;;;;;;;4970968;28;20187;-70
2023/12/26 14:08:41;;;;;;;5.30;1.87;;;;;;;;;;4970489;28;20218;-72
2023/12/26 14:11:07;;;;;;;5.90;1.10;;;;;;;;;;4969786;28;20249;-72
2023/12/26 14:13:32;;;;;;;5.20;1.10;;;;;;;;;;4970692;28;20282;-70
2023/12/26 14:15:57;;;;;;;5.77;1.30;;;;;;;;;;4969655;28;20199;-70
2023/12/26 14:18:22;;;;;;;3.63;1.10;;;;;;;;;;4969545;28;20234;-69
2023/12/26 14:20:48;;;;;;;2.90;1.03;;;;;;;;;;4970502;28;20191;-71
2023/12/26 14:23:13;;;;;;;3.37;1.10;;;;;;;;;;4970344;28;20231;-71
2023/12/26 14:25:39;;;;;;;3.53;1.00;;;;;;;;;;4973717;28;20184;-69
2023/12/26 14:28:04;;;;;;;5.90;1.70;;;;;;;;;;4971073;28;20203;-72
2023/12/26 14:30:29;;;;;;;3.33;1.27;;;;;;;;;;4972785;28;20258;-70
2023/12/26 14:32:55;;;;;;;3.43;1.03;;;;;;;;;;4971661;28;20814;-70
2023/12/26 14:35:39;;;;;;;4.00;1.13;;;;;;;;;;4969975;28;20578;-71
2023/12/26 14:38:23;;;;;;;14.57;1.13;;;;;;;;;;4970625;28;20191;-72
2023/12/26 14:41:07;;;;;;;5.90;1.20;;;;;;;;;;4971746;28;20642;-70
2023/12/26 14:43:54;;;;;;;6.13;1.50;;;;;;;;;;4971033;28;20234;-70
2023/12/26 14:46:38;;;;;;;5.23;1.00;;;;;;;;;;4973391;28;20192;-70
2023/12/26 14:49:22;;;;;;;3.47;1.30;;;;;;;;;;4971274;28;20215;-70
2023/12/26 14:52:06;;;;;;;4.47;1.20;;;;;;;;;;4971890;28;20705;-70
2023/12/26 14:54:50;;;;;;;3.57;1.43;;;;;;;;;;4972844;28;20183;-70
2023/12/26 14:57:53;;;;;;;5.83;1.40;;;;;;;;;;4977916;28;20686;-69
2023/12/26 15:00:36;;;;;;;7.13;1.70;;;;;;;;;;4971259;28;20184;-72
2023/12/26 15:03:02;;;;;;;4.83;1.23;;;;;;;;;;4970568;28;20342;-69
2023/12/26 15:05:33;;;;;;;8.73;1.70;;;;;;;;;;4967526;28;20699;-71
2023/12/26 15:07:58;;;;;;;4.07;1.40;;;;;;;;;;4970041;28;20191;-72
2023/12/26 15:10:24;;;;;;;6.07;1.10;;;;;;;;;;4966207;28;20227;-72
2023/12/26 15:12:49;;;;;;;6.53;2.40;;;;;;;;;;4969649;28;20265;-70
2023/12/26 15:15:14;;;;;;;6.27;1.70;;;;;;;;;;4969107;28;20183;-71
2023/12/26 15:17:39;;;;;;;5.43;1.70;;;;;;;;;;4970630;28;20199;-71
2023/12/26 15:20:05;;;;;;;4.80;1.53;;;;;;;;;;4969558;28;20193;-70
2023/12/26 15:22:30;;;;;;;4.83;1.90;;;;;;;;;;4970197;28;20203;-71
2023/12/26 15:24:56;;;;;;;6.43;1.60;;;;;;;;;;4972071;28;20309;-72
2023/12/26 15:27:22;;;;;;;8.33;1.80;;;;;;;;;;4971430;28;21003;-70
2023/12/26 15:29:48;;;;;;;4.90;1.57;;;;;;;;;;4968658;28;20178;-70
2023/12/26 15:32:13;;;;;;;5.90;1.30;;;;;;;;;;4969439;28;20221;-70
2023/12/26 15:34:39;;;;;;;4.73;1.20;;;;;;;;;;4969575;28;20179;-71
2023/12/26 15:37:04;;;;;;;3.67;1.20;;;;;;;;;;4969676;28;20187;-70
2023/12/26 15:39:30;;;;;;;4.20;1.47;;;;;;;;;;4983924;28;20245;-70
2023/12/26 15:41:55;;;;;;;4.57;1.23;;;;;;;;;;4969628;28;20239;-71
2023/12/26 15:44:20;;;;;;;3.87;1.30;;;;;;;;;;4974200;28;20186;-72
2023/12/26 15:46:46;;;;;;;4.73;1.00;;;;;;;;;;4970289;28;20184;-72
2023/12/26 15:49:11;;;;;;;4.70;1.10;;;;;;;;;;4969711;28;20242;-71
2023/12/26 15:51:37;;;;;;;4.70;1.77;;;;;;;;;;4969986;28;20381;-72
2023/12/26 15:54:02;;;;;;;6.60;1.40;;;;;;;;;;4968743;28;20199;-71
2023/12/26 15:56:28;;;;;;;6.77;1.47;;;;;;;;;;4969725;28;20430;-69
2023/12/26 15:58:53;;;;;;;3.60;1.27;;;;;;;;;;4966930;28;20215;-69
2023/12/26 16:01:21;;;;;;;6.40;2.23;;;;;;;;;;4969727;28;20289;-70
2023/12/26 16:03:50;;;;;;;5.00;1.37;;;;;;;;;;4969932;28;20203;-71
2023/12/26 16:06:16;;;;;;;4.47;1.40;;;;;;;;;;4969352;28;20195;-70
2023/12/26 16:08:41;;;;;;;5.03;1.50;;;;;;;;;;4968116;28;20292;-70
2023/12/26 16:11:07;;;;;;;3.40;0.87;;;;;;;;;;4969272;28;21954;-70
2023/12/26 16:13:32;;;;;;;6.53;1.57;;;;;;;;;;4968377;28;20671;-70
2023/12/26 16:15:57;;;;;;;4.90;1.43;;;;;;;;;;4967773;28;20188;-71
2023/12/26 16:18:23;;;;;;;2.30;1.10;;;;;;;;;;4972524;28;20199;-70
2023/12/26 16:20:48;;;;;;;10.60;1.30;;;;;;;;;;4976500;28;20195;-72
2023/12/26 16:23:13;;;;;;;5.83;1.73;;;;;;;;;;4975698;28;20206;-73
2023/12/26 16:25:42;;;;;;;8.07;1.73;;;;;;;;;;4977022;28;20199;-71
2023/12/26 16:28:08;;;;;;;8.20;1.73;;;;;;;;;;4975904;28;20835;-72
2023/12/26 16:30:33;;;;;;;5.47;1.17;;;;;;;;;;4975347;28;20226;-69
2023/12/26 16:32:59;;;;;;;5.53;1.20;;;;;;;;;;4976786;28;20208;-70
2023/12/26 16:35:24;;;;;;;5.43;1.40;;;;;;;;;;4976707;28;20660;-71
2023/12/26 16:37:49;;;;;;;10.13;1.43;;;;;;;;;;4976660;28;21511;-71
2023/12/26 16:40:15;;;;;;;5.83;1.97;;;;;;;;;;4979297;28;20187;-70
2023/12/26 16:42:40;;;;;;;10.30;1.93;;;;;;;;;;4975556;28;20203;-72
2023/12/26 16:45:05;;;;;;;7.77;1.47;;;;;;;;;;4979573;28;20187;-71
2023/12/26 16:47:31;;;;;;;8.37;1.23;;;;;;;;;;4976313;28;20190;-71
2023/12/26 16:49:58;;;;;;;14.43;2.00;;;;;;;;;;4975771;28;20190;-72
2023/12/26 16:52:23;;;;;;;7.60;1.80;;;;;;;;;;4975332;28;20211;-70
2023/12/26 16:54:50;;;;;;;5.30;1.57;;;;;;;;;;4979459;28;20179;-71
2023/12/26 16:57:15;;;;;;;3.07;1.77;;;;;;;;;;4978042;28;20203;-71
2023/12/26 16:59:40;;;;;;;5.17;1.83;;;;;;;;;;4975508;28;20172;-71
2023/12/26 17:02:06;;;;;;;5.13;1.53;;;;;;;;;;4975735;28;20184;-73
2023/12/26 17:04:31;;;;;;;4.10;1.57;;;;;;;;;;4975261;28;20283;-69
2023/12/26 17:06:56;;;;;;;3.43;1.83;;;;;;;;;;4979266;28;20663;-70
2023/12/26 17:09:21;;;;;;;5.30;1.63;;;;;;;;;;4977027;28;20191;-74
2023/12/26 17:11:47;;;;;;;5.77;2.37;;;;;;;;;;4977975;28;20203;-70
2023/12/26 17:14:12;;;;;;;4.23;1.83;;;;;;;;;;4973393;28;20270;-71
2023/12/26 17:16:37;;;;;;;5.00;2.47;;;;;;;;;;4975170;28;20188;-70
2023/12/26 17:19:02;;;;;;;9.27;2.30;;;;;;;;;;4976010;28;20180;-72
2023/12/26 17:21:28;;;;;;;7.37;2.03;;;;;;;;;;4976615;28;20188;-71
2023/12/26 17:23:53;;;;;;;6.53;2.20;;;;;;;;;;4978256;28;20214;-72